Fairmont, WV

6:00 PM EDT on August 03, 2015 (GMT -0400)
N8TJD's WX Station. Stony Rd/Pinchgut Hollow. | | Change Station
CLOSE
Current Station
Personal Weather Station
Location: Fairmont, WV
Elevation: 1283 ft
Nearby Weather Stations

Elev 1283 ft 39.46 °N, 80.12 °W | Updated 29 seconds ago

Partly Cloudy
Partly Cloudy
82.3 °F
Feels Like 82 °F
N
0.0
Wind Variable Wind from South
Gusts 3.1 mph

Today
High -- | Low -- °F
--% Chance of Precip.
Yesterday
High -- | Low -- °F
Precip. -- in
6:21 AM 8:31 PM
Waning Gibbous, 83% visible
Pressure 29.81 in
Visibility 10.0 miles
Clouds Clear
Heat Index 82 °F
Dew Point 55 °F
Humidity 39%
Rainfall 0.00 in
Snow Depth Not available.
UV 3 out of 12
Pollen 5.80 out of 12
Air Quality Not available.
Flu Activity Not available.
METAR KCKB 032153Z 23012G15KT 10SM CLR 29/16 A2985 RMK AO2 SLP094 T02890161

More Conditions Fewer Conditions

Pressure 29.81 in
Visibility 10.0 miles
Clouds Clear
Heat Index 82 °F
Dew Point 55 °F
Humidity 39%
Rainfall 0.00 in
Snow Depth Not available.
UV 3 out of 12
Pollen 5.80 out of 12
Air Quality Not available.
Flu Activity Not available.
METAR KCKB 032153Z 23012G15KT 10SM CLR 29/16 A2985 RMK AO2 SLP094 T02890161

More Conditions Fewer Conditions

10-Day Weather Forecast

×

Almanac

Astronomy

Aug. 03, 2015 Rise Set
Actual Time
Civil Twilight
Nautical Twilight
Astronomical Twilight
Moon
Length of Visible Light
Length of Day
Tomorrow will be .
, % of the Moon is Illuminated

Today's Extremes

State Highs State Lows

Community

WunderPhotos

Upload Photos

1,843,781 photos uploaded!

WunderBlogs® & News

Nearby

Air Quality

  Air Quality AQ Index Pollutant
Not available.

Snow Depth

Station Depth Elevation

Earthquake Activity

City Distance Mag. Time & Date
Minimum magnitude displayed is 2.5.

Coastal Water Temperatures

Place Temperature

Stations

Nearby Weather Stations

Station Location Temp. Windchill Dew Point Humidity Wind Precip. Elev Updated Type